createdAt,value
2019-03-10T00:00:29.156Z,99.90
2019-03-10T00:02:32.628Z,99.90
2019-03-10T00:04:36.081Z,99.90
2019-03-10T00:06:39.681Z,99.90
2019-03-10T00:08:43.143Z,99.90
2019-03-10T00:10:46.754Z,99.90
2019-03-10T00:12:50.287Z,99.90
2019-03-10T00:14:54.124Z,99.90
2019-03-10T00:16:58.003Z,99.90
2019-03-10T00:19:01.839Z,99.90
2019-03-10T00:21:05.374Z,99.90
2019-03-10T00:23:08.834Z,99.90
2019-03-10T00:25:12.538Z,99.90
2019-03-10T00:27:16.425Z,99.90
2019-03-10T00:29:19.888Z,99.90
2019-03-10T00:31:23.424Z,99.90
2019-03-10T00:33:26.952Z,99.90
2019-03-10T00:35:30.414Z,99.90
2019-03-10T00:37:34.492Z,99.80
2019-03-10T00:39:41.217Z,98.80
2019-03-10T00:42:05.908Z,98.20
2019-03-10T00:44:32.308Z,98.10
2019-03-10T00:47:04.748Z,98.60
2019-03-10T00:49:14.000Z,98.40
2019-03-10T00:51:27.020Z,98.70
2019-03-10T00:53:30.560Z,99.30
2019-03-10T00:55:34.023Z,98.40
2019-03-10T00:57:37.825Z,98.50
2019-03-10T00:59:41.276Z,97.90
2019-03-10T01:01:44.805Z,97.50
2019-03-10T01:03:48.617Z,96.90
2019-03-10T01:05:52.072Z,97.50
2019-03-10T01:07:55.637Z,98.10
2019-03-10T01:10:02.045Z,98.80
2019-03-10T01:12:05.875Z,99.50
2019-03-10T01:14:09.407Z,99.90
2019-03-10T01:16:13.189Z,99.90
2019-03-10T01:18:18.116Z,99.90
2019-03-10T01:20:22.013Z,99.90
2019-03-10T01:22:26.553Z,99.90
2019-03-10T01:24:30.084Z,99.90
2019-03-10T01:26:33.601Z,99.90
2019-03-10T01:28:37.172Z,99.90
2019-03-10T01:30:43.759Z,99.90
2019-03-10T01:33:08.488Z,99.90
2019-03-10T01:35:15.150Z,99.90
2019-03-10T01:37:18.684Z,99.90
2019-03-10T01:39:22.445Z,99.70
2019-03-10T01:41:25.972Z,99.90
2019-03-10T01:43:29.433Z,98.40
2019-03-10T01:45:32.996Z,98.20
2019-03-10T01:47:36.521Z,96.90
2019-03-10T01:49:40.490Z,96.40
2019-03-10T01:51:44.240Z,96.40
2019-03-10T01:53:47.756Z,96.60
2019-03-10T01:55:51.556Z,95.60
2019-03-10T01:57:55.011Z,95.40
2019-03-10T01:59:58.540Z,96.00
2019-03-10T02:02:01.993Z,95.80
2019-03-10T02:04:05.800Z,96.40
2019-03-10T02:06:09.724Z,96.00
2019-03-10T02:08:13.433Z,96.20
2019-03-10T02:10:16.964Z,95.80
2019-03-10T02:12:20.422Z,94.80
2019-03-10T02:14:23.943Z,95.00
2019-03-10T02:16:27.476Z,94.30
2019-03-10T02:18:30.936Z,93.30
2019-03-10T02:20:35.301Z,93.50
2019-03-10T02:22:39.804Z,93.20
2019-03-10T02:24:43.260Z,93.10
2019-03-10T02:26:47.926Z,92.90
2019-03-10T02:28:51.377Z,92.40
2019-03-10T02:30:54.838Z,92.40
2019-03-10T02:32:58.377Z,92.30
2019-03-10T02:35:01.873Z,92.70
2019-03-10T02:37:05.497Z,93.50
2019-03-10T02:39:09.462Z,93.70
2019-03-10T02:41:13.506Z,94.00
2019-03-10T02:43:17.140Z,93.10
2019-03-10T02:45:20.601Z,93.60
2019-03-10T02:47:24.061Z,93.30
2019-03-10T02:49:27.651Z,92.70
2019-03-10T02:51:31.539Z,92.50
2019-03-10T02:53:35.072Z,92.80
2019-03-10T02:55:38.684Z,93.30
2019-03-10T02:57:42.528Z,93.20
2019-03-10T02:59:45.988Z,93.30
2019-03-10T03:01:49.529Z,93.00
2019-03-10T03:03:53.330Z,93.20
2019-03-10T03:05:56.852Z,93.00
2019-03-10T03:08:00.393Z,91.90
2019-03-10T03:10:05.365Z,92.20
2019-03-10T03:12:09.107Z,91.40
2019-03-10T03:14:12.638Z,91.00
2019-03-10T03:16:16.197Z,91.00
2019-03-10T03:18:19.689Z,91.00
2019-03-10T03:20:23.254Z,90.60
2019-03-10T03:22:27.152Z,90.20
2019-03-10T03:24:30.744Z,90.20
2019-03-10T03:26:34.201Z,90.60
2019-03-10T03:28:38.190Z,90.70
2019-03-10T03:30:41.841Z,90.90
2019-03-10T03:32:45.478Z,91.50
2019-03-10T03:34:49.010Z,91.00
2019-03-10T03:36:52.539Z,90.90
2019-03-10T03:39:11.333Z,91.20
2019-03-10T03:41:17.409Z,91.20
2019-03-10T03:43:20.976Z,91.10
2019-03-10T03:45:25.363Z,90.90
2019-03-10T03:47:28.898Z,91.20
2019-03-10T03:49:32.741Z,90.40
2019-03-10T03:51:37.166Z,90.40
2019-03-10T03:53:41.064Z,90.20
2019-03-10T03:55:44.610Z,90.20
2019-03-10T03:57:48.192Z,90.60
2019-03-10T03:59:51.650Z,90.50
2019-03-10T04:02:02.641Z,90.80
2019-03-10T04:04:06.428Z,90.40
2019-03-10T04:06:09.886Z,90.80
2019-03-10T04:08:13.662Z,91.20
2019-03-10T04:10:17.425Z,91.30
2019-03-10T04:12:21.002Z,91.60
2019-03-10T04:14:24.636Z,91.80
2019-03-10T04:16:28.528Z,91.80
2019-03-10T04:18:32.425Z,92.00
2019-03-10T04:20:36.056Z,92.30
2019-03-10T04:22:39.512Z,92.40
2019-03-10T04:24:42.978Z,92.70
2019-03-10T04:26:46.509Z,93.10
2019-03-10T04:28:50.317Z,93.50
2019-03-10T04:30:53.854Z,93.80
2019-03-10T04:32:57.505Z,94.20
2019-03-10T04:35:01.414Z,93.90
2019-03-10T04:37:05.216Z,94.00
2019-03-10T04:39:08.676Z,93.90
2019-03-10T04:41:12.719Z,93.70
2019-03-10T04:43:16.189Z,93.90
2019-03-10T04:45:19.827Z,94.00
2019-03-10T04:47:23.362Z,93.80
2019-03-10T04:49:27.234Z,94.00
2019-03-10T04:51:31.221Z,94.10
2019-03-10T04:53:34.684Z,94.10
2019-03-10T04:55:46.054Z,94.10
2019-03-10T04:58:06.018Z,94.20
2019-03-10T05:00:10.216Z,94.30
2019-03-10T05:02:14.164Z,94.40
2019-03-10T05:04:17.968Z,94.30
2019-03-10T05:06:21.500Z,94.30
2019-03-10T05:08:25.865Z,94.40
2019-03-10T05:10:29.667Z,94.40
2019-03-10T05:12:33.238Z,94.20
2019-03-10T05:14:36.777Z,94.00
2019-03-10T05:16:40.280Z,94.20
2019-03-10T05:18:44.072Z,94.00
2019-03-10T05:20:49.100Z,94.00
2019-03-10T05:22:54.096Z,94.00
2019-03-10T05:24:57.814Z,94.30
2019-03-10T05:27:01.662Z,93.50
2019-03-10T05:29:05.188Z,93.50
2019-03-10T05:31:08.729Z,92.90
2019-03-10T05:33:12.265Z,92.60
2019-03-10T05:35:15.725Z,92.20
2019-03-10T05:37:19.180Z,91.80
2019-03-10T05:39:22.663Z,91.10
2019-03-10T05:41:26.187Z,90.10
2019-03-10T05:43:29.652Z,88.20
2019-03-10T05:45:33.108Z,86.70
2019-03-10T05:47:36.568Z,84.70
2019-03-10T05:49:40.623Z,82.60
2019-03-10T05:51:44.156Z,81.10
2019-03-10T05:53:47.889Z,79.40
2019-03-10T05:55:51.352Z,78.40
2019-03-10T05:57:55.218Z,76.70
2019-03-10T05:59:58.677Z,74.10
2019-03-10T06:02:02.132Z,72.80
2019-03-10T06:04:05.692Z,69.10
2019-03-10T06:06:09.152Z,69.60
2019-03-10T06:08:12.828Z,68.90
2019-03-10T06:10:17.196Z,68.60
2019-03-10T06:12:20.729Z,67.50
2019-03-10T06:14:24.343Z,65.00
2019-03-10T06:16:29.476Z,63.30
2019-03-10T06:18:33.125Z,61.20
2019-03-10T06:20:36.946Z,59.60
2019-03-10T06:22:40.400Z,57.80
2019-03-10T06:24:44.136Z,57.90
2019-03-10T06:26:47.596Z,56.20
2019-03-10T06:28:51.148Z,56.70
2019-03-10T06:30:56.344Z,57.10
2019-03-10T06:32:59.932Z,54.90
2019-03-10T06:35:03.836Z,54.80
2019-03-10T06:37:07.740Z,54.70
2019-03-10T06:39:11.544Z,53.70
2019-03-10T06:41:16.040Z,52.20
2019-03-10T06:43:19.501Z,51.80
2019-03-10T06:45:23.008Z,51.30
2019-03-10T06:47:26.512Z,50.80
2019-03-10T06:49:30.964Z,50.10
2019-03-10T06:51:34.998Z,49.70
2019-03-10T06:53:38.905Z,50.10
2019-03-10T06:55:44.029Z,48.70
2019-03-10T06:57:49.284Z,47.50
2019-03-10T06:59:52.861Z,47.20
2019-03-10T07:01:56.369Z,47.60
2019-03-10T07:03:59.980Z,47.30
2019-03-10T07:06:03.432Z,46.60
2019-03-10T07:08:07.032Z,47.20
2019-03-10T07:10:16.565Z,47.10
2019-03-10T07:12:20.396Z,47.00
2019-03-10T07:14:24.197Z,46.20
2019-03-10T07:16:27.737Z,47.80
2019-03-10T07:18:31.273Z,47.40
2019-03-10T07:20:34.780Z,47.90
2019-03-10T07:22:38.244Z,49.90
2019-03-10T07:24:42.085Z,50.00
2019-03-10T07:26:45.620Z,50.30
2019-03-10T07:28:53.825Z,49.30
2019-03-10T07:31:00.225Z,50.20
2019-03-10T07:33:11.732Z,51.00
2019-03-10T07:35:22.665Z,52.10
2019-03-10T07:37:33.900Z,52.40
2019-03-10T07:39:45.235Z,53.10
2019-03-10T07:42:06.960Z,53.30
2019-03-10T07:44:17.949Z,54.80
2019-03-10T07:46:23.057Z,56.00
2019-03-10T07:48:31.154Z,56.60
2019-03-10T07:50:37.072Z,57.40
2019-03-10T07:52:58.719Z,57.70
2019-03-10T07:55:03.920Z,58.70
2019-03-10T07:57:27.480Z,58.20
2019-03-10T07:59:38.089Z,57.60
2019-03-10T08:01:51.877Z,57.10
2019-03-10T08:03:57.268Z,57.40
2019-03-10T08:06:18.920Z,56.80
2019-03-10T08:08:27.694Z,57.20
2019-03-10T08:10:48.504Z,55.60
2019-03-10T08:12:56.216Z,54.40
2019-03-10T08:15:01.672Z,54.00
2019-03-10T08:17:12.516Z,53.10
2019-03-10T08:19:26.921Z,52.30
2019-03-10T08:21:37.728Z,50.30
2019-03-10T08:23:59.584Z,49.90
2019-03-10T08:26:11.274Z,48.90
2019-03-10T08:28:16.548Z,48.50
2019-03-10T08:30:38.072Z,47.90
2019-03-10T08:32:52.841Z,47.30
2019-03-10T08:35:09.689Z,46.90
2019-03-10T08:37:20.603Z,46.70
2019-03-10T08:39:32.277Z,47.90
2019-03-10T08:41:49.228Z,49.00
2019-03-10T08:44:00.133Z,49.10
2019-03-10T08:46:08.754Z,50.10
2019-03-10T08:48:16.440Z,51.40
2019-03-10T08:50:36.465Z,51.60
2019-03-10T08:52:41.696Z,52.30
2019-03-10T08:54:49.761Z,52.50
2019-03-10T08:56:55.895Z,52.00
2019-03-10T08:59:01.357Z,51.90
2019-03-10T09:01:24.952Z,51.30
2019-03-10T09:03:32.788Z,50.60
2019-03-10T09:05:52.935Z,50.30
2019-03-10T09:07:58.041Z,50.60
2019-03-10T09:10:19.656Z,50.10
2019-03-10T09:12:25.097Z,50.80
2019-03-10T09:14:39.372Z,52.80
2019-03-10T09:16:59.763Z,53.90
2019-03-10T09:19:14.072Z,54.80
2019-03-10T09:21:22.498Z,55.60
2019-03-10T09:23:43.962Z,56.10
2019-03-10T09:25:49.181Z,55.80
2019-03-10T09:27:54.613Z,55.40
2019-03-10T09:30:18.363Z,55.30
2019-03-10T09:32:23.801Z,57.40
2019-03-10T09:34:28.994Z,57.80
2019-03-10T09:36:37.017Z,57.00
2019-03-10T09:38:42.485Z,58.30
2019-03-10T09:40:53.669Z,58.20
2019-03-10T09:43:01.545Z,58.50
2019-03-10T09:45:10.390Z,58.80
2019-03-10T09:47:15.536Z,57.00
2019-03-10T09:49:36.689Z,56.80
2019-03-10T09:51:53.876Z,57.50
2019-03-10T09:53:59.064Z,57.70
2019-03-10T09:56:07.185Z,57.50
2019-03-10T09:58:15.172Z,58.10
2019-03-10T10:00:36.910Z,59.70
2019-03-10T10:02:47.696Z,59.30
2019-03-10T10:04:52.873Z,58.70
2019-03-10T10:07:04.062Z,57.50
2019-03-10T10:09:12.919Z,55.30
2019-03-10T10:11:29.932Z,55.70
2019-03-10T10:13:41.468Z,54.70
2019-03-10T10:15:55.637Z,54.60
2019-03-10T10:18:17.117Z,53.60
2019-03-10T10:20:28.465Z,53.30
2019-03-10T10:22:33.636Z,54.50
2019-03-10T10:24:39.972Z,54.80
2019-03-10T10:27:00.008Z,54.60
2019-03-10T10:29:10.083Z,54.50
2019-03-10T10:31:15.988Z,54.80
2019-03-10T10:33:39.170Z,55.60
2019-03-10T10:35:56.565Z,56.60
2019-03-10T10:38:01.745Z,55.20
2019-03-10T10:40:24.174Z,55.10
2019-03-10T10:42:29.454Z,54.90
2019-03-10T10:44:37.458Z,55.00
2019-03-10T10:46:49.106Z,53.70
2019-03-10T10:49:03.324Z,54.40
2019-03-10T10:51:17.904Z,54.00
2019-03-10T10:53:23.076Z,55.30
2019-03-10T10:55:37.793Z,55.00
2019-03-10T10:57:42.961Z,54.70
2019-03-10T10:59:48.160Z,55.10
2019-03-10T11:02:08.302Z,53.60
2019-03-10T11:04:19.533Z,53.00
2019-03-10T11:06:24.909Z,52.90
2019-03-10T11:08:30.316Z,53.90
2019-03-10T11:10:41.669Z,52.50
2019-03-10T11:12:53.106Z,52.80
2019-03-10T11:15:08.305Z,53.50
2019-03-10T11:17:22.146Z,54.20
2019-03-10T11:19:30.184Z,55.20
2019-03-10T11:21:44.777Z,55.30
2019-03-10T11:23:52.501Z,55.50
2019-03-10T11:25:57.671Z,54.00
2019-03-10T11:28:18.237Z,53.90
2019-03-10T11:30:29.560Z,54.20
2019-03-10T11:32:46.701Z,54.00
2019-03-10T11:34:54.924Z,54.30
2019-03-10T11:37:14.957Z,54.20
2019-03-10T11:39:29.075Z,54.00
2019-03-10T11:41:50.713Z,52.10
2019-03-10T11:43:56.333Z,52.40
2019-03-10T11:46:25.329Z,52.80
2019-03-10T11:48:39.381Z,53.30
2019-03-10T11:50:47.616Z,53.10
2019-03-10T11:52:55.651Z,53.00
2019-03-10T11:55:01.093Z,53.60
2019-03-10T11:57:06.461Z,53.30
2019-03-10T11:59:14.693Z,52.80
2019-03-10T12:01:34.821Z,52.80
2019-03-10T12:03:45.858Z,53.40
2019-03-10T12:05:53.808Z,53.00
2019-03-10T12:07:59.673Z,52.90
2019-03-10T12:10:03.484Z,52.80
2019-03-10T12:12:06.952Z,53.40
2019-03-10T12:14:10.900Z,53.10
2019-03-10T12:16:14.433Z,53.20
2019-03-10T12:18:18.177Z,53.00
2019-03-10T12:20:21.643Z,52.50
2019-03-10T12:22:25.176Z,52.10
2019-03-10T12:24:28.785Z,51.10
2019-03-10T12:26:32.585Z,51.10
2019-03-10T12:28:36.361Z,50.70
2019-03-10T12:30:40.017Z,50.80
2019-03-10T12:32:44.361Z,51.00
2019-03-10T12:34:49.033Z,51.40
2019-03-10T12:36:52.789Z,51.10
2019-03-10T12:38:56.424Z,51.60
2019-03-10T12:41:00.206Z,53.30
2019-03-10T12:43:03.740Z,53.60
2019-03-10T12:45:09.819Z,52.90
2019-03-10T12:47:13.762Z,53.40
2019-03-10T12:49:18.168Z,53.60
2019-03-10T12:51:22.073Z,53.90
2019-03-10T12:53:25.707Z,54.60
2019-03-10T12:55:29.245Z,53.90
2019-03-10T12:57:33.671Z,54.30
2019-03-10T12:59:37.994Z,54.40
2019-03-10T13:01:41.505Z,54.30
2019-03-10T13:03:45.268Z,54.60
2019-03-10T13:05:48.803Z,54.60
2019-03-10T13:09:56.816Z,54.90
2019-03-10T13:12:00.541Z,56.10
2019-03-10T13:14:04.085Z,56.10
2019-03-10T13:16:07.634Z,56.60
2019-03-10T13:18:11.513Z,58.20
2019-03-10T13:20:15.415Z,59.00
2019-03-10T13:22:19.215Z,61.90
2019-03-10T13:24:22.745Z,65.60
2019-03-10T13:26:26.324Z,70.40
2019-03-10T13:28:30.619Z,73.20
2019-03-10T13:30:34.157Z,75.40
2019-03-10T13:32:37.797Z,77.30
2019-03-10T13:34:41.263Z,78.10
2019-03-10T13:36:45.808Z,78.80
2019-03-10T13:38:49.279Z,78.80
2019-03-10T13:40:53.236Z,79.70
2019-03-10T13:42:57.137Z,80.50
2019-03-10T13:45:00.950Z,80.00
2019-03-10T13:47:04.871Z,80.80
2019-03-10T13:49:08.740Z,82.00
2019-03-10T13:51:12.489Z,84.10
2019-03-10T13:53:16.051Z,88.00
2019-03-10T13:55:19.580Z,89.00
2019-03-10T13:57:23.053Z,89.70
2019-03-10T13:59:26.917Z,90.40
2019-03-10T14:01:30.845Z,90.90
2019-03-10T14:03:35.800Z,91.50
2019-03-10T14:05:39.294Z,91.80
2019-03-10T14:07:42.761Z,92.20
2019-03-10T14:09:46.338Z,92.70
2019-03-10T14:11:49.876Z,93.20
2019-03-10T14:13:53.662Z,93.20
2019-03-10T14:15:57.196Z,93.30
2019-03-10T14:18:00.957Z,92.90
2019-03-10T14:20:06.862Z,93.00
2019-03-10T14:22:10.713Z,93.50
2019-03-10T14:24:14.517Z,93.80
2019-03-10T14:26:18.456Z,93.80
2019-03-10T14:28:22.470Z,93.50
2019-03-10T14:30:26.143Z,93.30
2019-03-10T14:32:29.784Z,93.30
2019-03-10T14:34:33.603Z,93.50
2019-03-10T14:36:38.020Z,93.70
2019-03-10T14:38:41.777Z,93.80
2019-03-10T14:40:45.322Z,94.00
2019-03-10T14:42:49.350Z,93.90
2019-03-10T14:44:53.461Z,93.80
2019-03-10T14:46:57.374Z,94.10
2019-03-10T14:49:00.897Z,94.20
2019-03-10T14:51:04.560Z,94.40
2019-03-10T14:53:08.072Z,94.50
2019-03-10T14:55:14.625Z,94.90
2019-03-10T14:57:19.014Z,95.10
2019-03-10T14:59:23.636Z,95.50
2019-03-10T15:01:27.470Z,95.50
2019-03-10T15:03:31.400Z,95.50
2019-03-10T15:05:35.004Z,95.60
2019-03-10T15:07:38.898Z,95.80
2019-03-10T15:09:42.614Z,95.80
2019-03-10T15:11:46.153Z,96.10
2019-03-10T15:13:49.800Z,96.50
2019-03-10T15:15:54.192Z,96.50
2019-03-10T15:17:58.540Z,96.70
2019-03-10T15:20:02.826Z,97.00
2019-03-10T15:22:06.296Z,97.30
2019-03-10T15:24:10.108Z,97.40
2019-03-10T15:26:13.969Z,97.60
2019-03-10T15:28:17.768Z,97.60
2019-03-10T15:30:23.897Z,97.90
2019-03-10T15:32:27.447Z,98.00
2019-03-10T15:34:31.787Z,98.10
2019-03-10T15:36:35.332Z,98.10
2019-03-10T15:38:38.869Z,98.40
2019-03-10T15:40:42.479Z,98.40
2019-03-10T15:42:46.270Z,98.60
2019-03-10T15:44:49.796Z,98.50
2019-03-10T15:46:53.549Z,99.20
2019-03-10T15:48:58.373Z,99.40
2019-03-10T15:51:02.737Z,99.70
2019-03-10T15:53:06.347Z,99.90
2019-03-10T15:55:10.097Z,99.90
2019-03-10T15:57:14.000Z,99.90
2019-03-10T15:59:18.646Z,99.90
2019-03-10T16:01:24.416Z,99.90
2019-03-10T16:03:28.410Z,99.80
2019-03-10T16:05:33.215Z,99.90
2019-03-10T16:07:37.252Z,99.90
2019-03-10T16:09:40.805Z,99.80
2019-03-10T16:11:44.589Z,99.80
2019-03-10T16:13:49.612Z,99.80
2019-03-10T16:15:53.193Z,99.90
2019-03-10T16:17:57.684Z,99.90
2019-03-10T16:20:01.238Z,99.90
2019-03-10T16:22:05.281Z,99.90
2019-03-10T16:24:10.104Z,99.90
2019-03-10T16:26:13.646Z,99.90
2019-03-10T16:28:17.241Z,99.90
2019-03-10T16:30:26.303Z,99.90
2019-03-10T16:32:29.761Z,99.90
2019-03-10T16:34:33.296Z,99.90
2019-03-10T16:36:37.654Z,99.90
2019-03-10T16:38:41.189Z,99.90
2019-03-10T16:40:44.767Z,99.90
2019-03-10T16:42:48.750Z,99.90
2019-03-10T16:44:52.401Z,99.90
2019-03-10T16:46:55.896Z,99.90
2019-03-10T16:48:59.639Z,99.90
2019-03-10T16:51:03.345Z,99.90
2019-03-10T16:53:06.953Z,99.90
2019-03-10T16:55:11.559Z,99.90
2019-03-10T16:57:15.101Z,99.90
2019-03-10T16:59:18.677Z,99.90
2019-03-10T17:01:23.160Z,99.90
2019-03-10T17:03:26.681Z,99.90
2019-03-10T17:05:30.148Z,99.90
2019-03-10T17:07:33.776Z,99.90
2019-03-10T17:09:38.628Z,99.90
2019-03-10T17:11:42.582Z,99.90
2019-03-10T17:13:46.450Z,99.90
2019-03-10T17:15:50.008Z,99.90
2019-03-10T17:17:53.811Z,99.90
2019-03-10T17:19:57.312Z,99.90
2019-03-10T17:22:00.799Z,99.90
2019-03-10T17:24:05.112Z,99.90
2019-03-10T17:26:08.752Z,99.90
2019-03-10T17:28:12.723Z,99.90
2019-03-10T17:30:20.693Z,99.90
2019-03-10T17:32:24.585Z,99.90
2019-03-10T17:34:28.129Z,99.90
2019-03-10T17:36:31.998Z,99.90
2019-03-10T17:38:35.536Z,99.90
2019-03-10T17:40:39.198Z,99.90
2019-03-10T17:42:42.784Z,99.90
2019-03-10T17:44:46.631Z,99.90
2019-03-10T17:46:50.348Z,99.90
2019-03-10T17:48:53.881Z,99.90
2019-03-10T17:50:57.797Z,99.90
2019-03-10T17:53:02.193Z,99.90
2019-03-10T17:55:08.658Z,99.90
2019-03-10T17:57:12.577Z,99.90
2019-03-10T17:59:16.148Z,99.90
2019-03-10T18:01:19.623Z,99.90
2019-03-10T18:03:23.187Z,99.90
2019-03-10T18:05:26.731Z,99.90
2019-03-10T18:07:30.373Z,99.90
2019-03-10T18:09:34.293Z,99.90
2019-03-10T18:11:37.898Z,99.90
2019-03-10T18:13:41.855Z,99.90
2019-03-10T18:15:45.352Z,99.90
2019-03-10T18:17:50.237Z,99.90
2019-03-10T18:19:53.705Z,99.90
2019-03-10T18:21:57.623Z,99.90
2019-03-10T18:24:01.525Z,99.90
2019-03-10T18:26:05.325Z,99.90
2019-03-10T18:28:08.905Z,99.90
2019-03-10T18:30:15.162Z,99.90
2019-03-10T18:32:19.275Z,99.90
2019-03-10T18:34:24.461Z,99.90
2019-03-10T18:36:28.311Z,99.90
2019-03-10T18:38:31.844Z,99.90
2019-03-10T18:40:38.927Z,99.90
2019-03-10T18:42:42.248Z,99.90
2019-03-10T18:44:46.038Z,99.90
2019-03-10T18:46:50.578Z,99.90
2019-03-10T18:48:55.774Z,99.90
2019-03-10T18:50:59.247Z,99.90
2019-03-10T18:53:03.167Z,99.90
2019-03-10T18:55:10.317Z,99.90
2019-03-10T18:57:13.929Z,99.90
2019-03-10T18:59:17.610Z,99.90
2019-03-10T19:01:21.671Z,99.90
2019-03-10T19:03:25.526Z,99.90
2019-03-10T19:05:30.684Z,99.90
2019-03-10T19:07:34.453Z,99.90
2019-03-10T19:09:37.993Z,99.90
2019-03-10T19:11:41.853Z,99.90
2019-03-10T19:13:45.793Z,99.90
2019-03-10T19:15:49.383Z,99.90
2019-03-10T19:17:53.286Z,99.90
2019-03-10T19:19:57.223Z,99.90
2019-03-10T19:22:01.112Z,99.90
2019-03-10T19:24:04.938Z,99.90
2019-03-10T19:26:11.116Z,99.90
2019-03-10T19:28:13.654Z,99.90
2019-03-10T19:30:22.032Z,99.90
2019-03-10T19:32:25.632Z,99.90
2019-03-10T19:34:29.101Z,99.90
2019-03-10T19:36:32.944Z,99.90
2019-03-10T19:38:36.738Z,99.90
2019-03-10T19:40:40.277Z,99.60
2019-03-10T19:42:44.597Z,99.50
2019-03-10T19:44:48.449Z,99.20
2019-03-10T19:46:52.922Z,99.40
2019-03-10T19:48:57.445Z,99.30
2019-03-10T19:51:00.981Z,99.30
2019-03-10T19:53:04.445Z,99.30
2019-03-10T19:55:10.883Z,99.10
2019-03-10T19:57:15.460Z,99.00
2019-03-10T19:59:19.371Z,98.80
2019-03-10T20:01:22.937Z,98.70
2019-03-10T20:03:26.753Z,98.60
2019-03-10T20:05:36.971Z,98.60
2019-03-10T20:07:36.305Z,98.50
2019-03-10T20:09:40.793Z,98.30
2019-03-10T20:11:45.233Z,98.40
2019-03-10T20:13:49.548Z,98.20
2019-03-10T20:15:53.449Z,98.20
2019-03-10T20:17:59.684Z,97.90
2019-03-10T20:20:03.899Z,97.80
2019-03-10T20:22:07.690Z,97.80
2019-03-10T20:24:11.212Z,97.60
2019-03-10T20:26:15.103Z,97.50
2019-03-10T20:28:18.641Z,97.40
2019-03-10T20:30:28.437Z,97.20
2019-03-10T20:32:32.078Z,97.10
2019-03-10T20:34:36.532Z,97.20
2019-03-10T20:36:40.263Z,97.20
2019-03-10T20:38:43.797Z,97.30
2019-03-10T20:40:50.047Z,97.30
2019-03-10T20:42:56.025Z,97.40
2019-03-10T20:44:59.819Z,97.40
2019-03-10T20:47:03.799Z,97.50
2019-03-10T20:49:08.141Z,97.50
2019-03-10T20:51:12.019Z,97.50
2019-03-10T20:53:15.817Z,97.60
2019-03-10T20:55:19.365Z,97.70
2019-03-10T20:57:23.000Z,97.70
2019-03-10T20:59:26.851Z,97.80
2019-03-10T21:01:30.643Z,98.20
2019-03-10T21:03:34.548Z,98.40
2019-03-10T21:05:38.043Z,98.30
2019-03-10T21:07:41.622Z,97.90
2019-03-10T21:09:45.421Z,97.80
2019-03-10T21:11:48.948Z,97.70
2019-03-10T21:13:53.106Z,97.20
2019-03-10T21:15:57.458Z,97.20
2019-03-10T21:18:01.260Z,97.10
2019-03-10T21:20:07.956Z,97.10
2019-03-10T21:22:11.495Z,97.10
2019-03-10T21:24:15.280Z,97.10
2019-03-10T21:26:19.033Z,97.20
2019-03-10T21:28:22.833Z,97.30
2019-03-10T21:30:28.219Z,97.30
2019-03-10T21:32:31.753Z,97.40
2019-03-10T21:34:36.057Z,97.50
2019-03-10T21:36:39.588Z,97.50
2019-03-10T21:38:43.048Z,97.50
2019-03-10T21:40:46.769Z,97.60
2019-03-10T21:42:50.665Z,97.40
2019-03-10T21:44:54.198Z,97.30
2019-03-10T21:46:58.757Z,97.10
2019-03-10T21:49:02.397Z,97.10
2019-03-10T21:51:05.868Z,96.90
2019-03-10T21:53:09.687Z,96.40
2019-03-10T21:55:14.459Z,96.50
2019-03-10T21:57:18.916Z,96.60
2019-03-10T21:59:22.373Z,96.30
2019-03-10T22:01:26.240Z,96.20
2019-03-10T22:03:29.810Z,96.10
2019-03-10T22:05:33.593Z,96.00
2019-03-10T22:07:37.134Z,96.00
2019-03-10T22:09:40.989Z,95.90
2019-03-10T22:11:44.620Z,95.60
2019-03-10T22:13:48.416Z,95.20
2019-03-10T22:15:52.317Z,94.90
2019-03-10T22:17:55.848Z,94.60
2019-03-10T22:19:59.641Z,94.50
2019-03-10T22:22:03.517Z,94.30
2019-03-10T22:24:07.076Z,94.30
2019-03-10T22:26:10.540Z,94.00
2019-03-10T22:28:14.069Z,93.70
2019-03-10T22:30:20.602Z,93.50
2019-03-10T22:32:24.169Z,93.20
2019-03-10T22:34:27.695Z,93.60
2019-03-10T22:36:31.253Z,93.90
2019-03-10T22:38:34.708Z,93.90
2019-03-10T22:40:39.371Z,94.20
2019-03-10T22:42:43.292Z,94.50
2019-03-10T22:44:46.877Z,95.20
2019-03-10T22:46:51.188Z,95.30
2019-03-10T22:48:55.304Z,95.60
2019-03-10T22:50:58.760Z,95.90
2019-03-10T22:53:02.297Z,96.00
2019-03-10T22:55:07.850Z,96.30
2019-03-10T22:57:11.424Z,96.50
2019-03-10T22:59:14.920Z,96.80
2019-03-10T23:01:18.486Z,96.70
2019-03-10T23:03:22.016Z,96.80
2019-03-10T23:05:25.511Z,96.70
2019-03-10T23:07:29.036Z,96.60
2019-03-10T23:09:32.512Z,96.50
2019-03-10T23:11:35.972Z,96.00
2019-03-10T23:13:39.428Z,95.50
2019-03-10T23:15:43.405Z,94.70
2019-03-10T23:17:47.087Z,94.40
2019-03-10T23:19:50.564Z,94.30
2019-03-10T23:21:54.088Z,93.60
2019-03-10T23:23:57.894Z,93.90
2019-03-10T23:26:01.413Z,93.50
2019-03-10T23:28:05.150Z,93.20
2019-03-10T23:30:12.382Z,93.20
2019-03-10T23:32:16.181Z,93.00
2019-03-10T23:34:19.712Z,93.10
2019-03-10T23:36:23.173Z,92.50
2019-03-10T23:38:27.022Z,92.10
2019-03-10T23:40:30.556Z,92.00
2019-03-10T23:42:34.372Z,91.50
2019-03-10T23:44:38.173Z,91.10
2019-03-10T23:46:42.024Z,90.60
2019-03-10T23:48:45.783Z,90.50
2019-03-10T23:50:49.322Z,90.50
2019-03-10T23:52:52.953Z,90.40
2019-03-10T23:54:56.630Z,90.40
2019-03-10T23:57:00.106Z,90.20
2019-03-10T23:59:03.972Z,89.80
